Time;durP1;ratioP1;P1;durP2;ratioP2;P2;SDS_P1;SDS_P2;PMS_P1;PMS_P2;Temp;Humidity;BMP_temperature;BMP_pressure;BME280_temperature;BME280_humidity;BME280_pressure;Samples;Min_cycle;Max_cycle;Signal;HPM_P1;HPM_P2
2024/02/03 00:02:24;;;;;;;4.25;1.10;;;11.10;99.90;;;;;;6341221;22;20024;-83
2024/02/03 00:04:50;;;;;;;4.15;1.20;;;11.10;99.90;;;;;;6368890;22;20314;-83
2024/02/03 00:07:16;;;;;;;7.07;1.63;;;11.10;99.90;;;;;;6341120;22;20025;-85
2024/02/03 00:09:41;;;;;;;4.32;1.90;;;11.10;99.90;;;;;;6340918;22;20071;-83
2024/02/03 00:12:08;;;;;;;3.60;1.38;;;11.10;99.90;;;;;;6369222;22;20377;-83
2024/02/03 00:14:34;;;;;;;2.90;1.10;;;11.10;99.90;;;;;;6369087;22;19998;-82
2024/02/03 00:17:00;;;;;;;7.38;1.67;;;11.10;99.90;;;;;;6368830;22;20024;-81
2024/02/03 00:19:26;;;;;;;9.38;2.63;;;11.10;99.90;;;;;;6341113;22;20081;-85
2024/02/03 00:21:52;;;;;;;3.40;1.42;;;11.10;99.90;;;;;;6341262;22;20007;-83
2024/02/03 00:24:17;;;;;;;6.55;1.35;;;11.10;99.90;;;;;;6341400;22;20030;-84
2024/02/03 00:26:43;;;;;;;3.15;1.38;;;11.00;99.90;;;;;;6369297;22;20017;-82
2024/02/03 00:29:08;;;;;;;7.70;1.52;;;11.00;99.90;;;;;;6369000;22;20042;-81
2024/02/03 00:31:34;;;;;;;4.20;1.80;;;11.00;99.90;;;;;;6341327;22;20429;-82
2024/02/03 00:34:00;;;;;;;7.03;2.00;;;11.00;99.90;;;;;;6341437;22;19995;-82
2024/02/03 00:36:25;;;;;;;6.22;1.83;;;11.00;99.90;;;;;;6341438;22;19998;-84
2024/02/03 00:38:52;;;;;;;12.43;2.08;;;11.00;99.90;;;;;;6369216;22;20470;-82
2024/02/03 00:41:18;;;;;;;8.52;1.88;;;11.00;99.90;;;;;;6369700;22;20002;-82
2024/02/03 00:43:44;;;;;;;6.13;1.70;;;11.00;99.90;;;;;;6341828;22;20075;-83
2024/02/03 00:46:11;;;;;;;5.50;1.60;;;11.00;99.90;;;;;;6369856;22;20007;-83
2024/02/03 00:48:37;;;;;;;5.35;1.60;;;10.90;99.90;;;;;;6369533;22;20006;-83
2024/02/03 00:51:09;;;;;;;8.77;1.83;;;11.00;99.90;;;;;;6367727;22;20054;-82
2024/02/03 00:53:38;;;;;;;12.73;1.98;;;10.90;99.90;;;;;;6341945;22;20052;-82
2024/02/03 00:56:04;;;;;;;4.38;1.83;;;10.90;99.90;;;;;;6342083;22;20002;-82
2024/02/03 00:58:30;;;;;;;3.63;1.80;;;11.00;99.90;;;;;;6342057;22;20026;-82
2024/02/03 01:00:57;;;;;;;5.60;2.22;;;11.00;99.90;;;;;;6341889;22;20019;-82
2024/02/03 01:03:24;;;;;;;4.30;2.42;;;11.00;99.90;;;;;;6341415;22;20010;-82
2024/02/03 01:05:51;;;;;;;6.70;2.38;;;11.00;99.90;;;;;;6341199;22;19998;-82
2024/02/03 01:08:16;;;;;;;12.40;2.90;;;11.00;99.90;;;;;;6341602;22;20006;-82
2024/02/03 01:10:42;;;;;;;6.93;2.53;;;11.00;99.90;;;;;;6369042;22;20255;-82
2024/02/03 01:13:09;;;;;;;7.15;2.38;;;11.00;99.90;;;;;;6341231;22;20006;-84
2024/02/03 01:15:34;;;;;;;4.72;2.08;;;11.00;99.90;;;;;;6369273;22;20073;-82
2024/02/03 01:18:00;;;;;;;7.10;2.30;;;11.00;99.90;;;;;;6341151;22;20057;-82
2024/02/03 01:20:26;;;;;;;4.15;2.50;;;11.00;99.90;;;;;;6368894;22;20085;-83
2024/02/03 01:22:52;;;;;;;8.88;2.47;;;11.00;99.90;;;;;;6341107;22;20388;-82
2024/02/03 01:25:18;;;;;;;9.55;2.47;;;10.90;99.90;;;;;;6369064;22;20002;-83
2024/02/03 01:27:44;;;;;;;7.00;2.28;;;10.90;99.90;;;;;;6341463;22;20002;-83
2024/02/03 01:30:10;;;;;;;9.73;2.95;;;10.90;99.90;;;;;;6341227;22;20037;-84
2024/02/03 01:32:35;;;;;;;8.15;2.70;;;11.00;99.90;;;;;;6341276;22;20005;-84
2024/02/03 01:35:03;;;;;;;6.53;3.17;;;11.00;99.90;;;;;;6341168;22;20010;-84
2024/02/03 01:37:28;;;;;;;8.65;2.80;;;11.00;99.90;;;;;;6369188;22;20038;-82
2024/02/03 01:39:54;;;;;;;6.75;3.50;;;11.00;99.90;;;;;;6368984;22;20413;-83
2024/02/03 01:42:20;;;;;;;6.47;3.05;;;11.00;99.90;;;;;;6341186;22;20005;-83
2024/02/03 01:44:46;;;;;;;8.30;3.38;;;11.00;99.90;;;;;;6341235;22;20006;-81
2024/02/03 01:47:12;;;;;;;12.30;4.97;;;10.90;99.90;;;;;;6369314;22;20285;-83
2024/02/03 01:49:38;;;;;;;8.05;3.00;;;11.00;99.90;;;;;;6341113;22;20234;-84
2024/02/03 01:52:06;;;;;;;6.22;3.88;;;11.00;99.90;;;;;;6342508;22;20093;-82
2024/02/03 01:54:33;;;;;;;7.63;4.28;;;11.00;99.90;;;;;;6342956;22;20006;-83
2024/02/03 01:56:59;;;;;;;8.02;4.15;;;11.00;99.90;;;;;;6343058;22;19998;-82
2024/02/03 01:59:27;;;;;;;13.05;4.30;;;10.90;99.90;;;;;;6370993;22;19999;-82
2024/02/03 02:01:56;;;;;;;10.52;4.78;;;11.00;99.90;;;;;;6342200;22;20003;-83
2024/02/03 02:04:23;;;;;;;10.95;5.45;;;11.00;99.90;;;;;;6342187;22;20097;-83
2024/02/03 02:06:50;;;;;;;13.73;5.35;;;10.90;99.90;;;;;;6342634;22;20080;-82
2024/02/03 02:09:23;;;;;;;11.90;5.18;;;11.00;99.90;;;;;;6342331;22;20507;-82
2024/02/03 02:11:51;;;;;;;12.43;5.25;;;11.00;99.90;;;;;;6370981;22;19994;-82
2024/02/03 02:14:20;;;;;;;8.95;4.90;;;10.90;99.90;;;;;;6370769;22;20002;-82
2024/02/03 02:16:45;;;;;;;8.57;4.95;;;10.90;99.90;;;;;;6342866;22;19999;-83
2024/02/03 02:19:11;;;;;;;16.67;6.03;;;10.90;99.90;;;;;;6343409;22;20051;-82
2024/02/03 02:21:37;;;;;;;11.13;5.20;;;10.90;99.90;;;;;;6344747;22;20311;-82
2024/02/03 02:24:03;;;;;;;10.93;5.97;;;10.90;99.90;;;;;;6344938;22;20002;-83
2024/02/03 02:26:29;;;;;;;10.07;5.10;;;10.90;99.90;;;;;;6371728;22;20077;-84
2024/02/03 02:28:55;;;;;;;9.52;4.93;;;10.90;99.90;;;;;;6343131;22;20045;-83
2024/02/03 02:31:21;;;;;;;7.95;3.70;;;10.90;99.90;;;;;;6342885;22;19994;-83
2024/02/03 02:33:46;;;;;;;7.63;3.85;;;10.90;99.90;;;;;;6370501;22;20013;-83
2024/02/03 02:36:12;;;;;;;9.13;4.40;;;10.90;99.90;;;;;;6342432;22;20082;-84
2024/02/03 02:38:38;;;;;;;13.57;3.47;;;10.90;99.90;;;;;;6370329;22;20077;-82
2024/02/03 02:41:04;;;;;;;8.45;3.50;;;10.90;99.90;;;;;;6342336;22;20472;-84
2024/02/03 02:43:29;;;;;;;15.02;3.42;;;10.90;99.90;;;;;;6342592;22;20081;-83
2024/02/03 02:45:55;;;;;;;9.90;3.13;;;10.90;99.90;;;;;;6370574;22;20040;-83
2024/02/03 02:48:22;;;;;;;10.90;3.60;;;10.90;99.90;;;;;;6342458;22;20009;-83
2024/02/03 02:50:48;;;;;;;11.63;3.72;;;10.90;99.90;;;;;;6342297;22;20040;-84
2024/02/03 02:53:14;;;;;;;6.35;3.55;;;10.90;99.90;;;;;;6342436;22;20002;-83
2024/02/03 02:55:40;;;;;;;8.95;4.15;;;10.90;99.90;;;;;;6342385;22;20074;-83
2024/02/03 02:58:06;;;;;;;5.97;3.25;;;10.90;99.90;;;;;;6342397;22;20337;-84
2024/02/03 03:00:33;;;;;;;5.95;3.60;;;10.80;99.90;;;;;;6342165;22;20006;-84
2024/02/03 03:03:00;;;;;;;11.27;3.67;;;10.80;99.90;;;;;;6341436;22;20151;-84
2024/02/03 03:05:26;;;;;;;7.72;3.47;;;10.80;99.90;;;;;;6341927;22;20009;-84
2024/02/03 03:07:51;;;;;;;10.10;3.67;;;10.80;99.90;;;;;;6341889;22;19999;-85
2024/02/03 03:10:17;;;;;;;7.10;2.90;;;10.80;99.90;;;;;;6341884;22;20015;-83
2024/02/03 03:12:43;;;;;;;6.43;2.55;;;10.80;99.90;;;;;;6341917;22;20006;-83
2024/02/03 03:15:09;;;;;;;8.05;3.47;;;10.80;99.90;;;;;;6341974;22;20010;-83
2024/02/03 03:17:35;;;;;;;8.52;3.83;;;10.80;99.90;;;;;;6370089;22;20065;-84
2024/02/03 03:20:01;;;;;;;5.70;3.50;;;10.80;99.90;;;;;;6341445;22;20085;-84
2024/02/03 03:22:27;;;;;;;7.03;3.03;;;10.80;99.90;;;;;;6369663;22;20007;-83
2024/02/03 03:24:53;;;;;;;11.32;3.30;;;10.80;99.90;;;;;;6342024;22;20002;-84
2024/02/03 03:27:18;;;;;;;9.55;3.55;;;10.80;99.90;;;;;;6369773;22;20077;-84
2024/02/03 03:29:46;;;;;;;8.32;3.30;;;10.80;99.90;;;;;;6341700;22;20105;-83
2024/02/03 03:32:12;;;;;;;12.02;2.55;;;10.80;99.90;;;;;;6342152;22;20421;-84
2024/02/03 03:34:39;;;;;;;9.63;3.47;;;10.90;99.90;;;;;;6341709;22;20006;-84
2024/02/03 03:37:04;;;;;;;6.97;2.60;;;10.90;99.90;;;;;;6341798;22;19998;-83
2024/02/03 03:39:30;;;;;;;6.65;3.10;;;10.90;99.90;;;;;;6341852;22;20002;-83
2024/02/03 03:41:56;;;;;;;8.65;2.97;;;10.90;99.90;;;;;;6369694;22;20437;-83
2024/02/03 03:44:21;;;;;;;5.57;3.33;;;10.90;99.90;;;;;;6341754;22;20006;-85
2024/02/03 03:46:47;;;;;;;9.23;2.63;;;10.90;99.90;;;;;;6341783;22;20003;-83
2024/02/03 03:49:13;;;;;;;5.75;2.15;;;10.80;99.90;;;;;;6341695;22;20010;-83
2024/02/03 03:51:39;;;;;;;7.93;3.17;;;10.80;99.90;;;;;;6341561;22;20387;-84
2024/02/03 03:54:05;;;;;;;8.27;3.10;;;10.80;99.90;;;;;;6341643;22;20329;-84
2024/02/03 03:56:30;;;;;;;12.80;3.17;;;10.80;99.90;;;;;;6369495;22;20074;-84
2024/02/03 03:58:56;;;;;;;7.68;3.83;;;10.80;99.90;;;;;;6341835;22;19994;-84
2024/02/03 04:01:22;;;;;;;8.70;4.18;;;10.80;99.90;;;;;;6341631;22;20037;-85
2024/02/03 04:03:48;;;;;;;11.98;4.78;;;10.70;99.90;;;;;;6341416;22;20002;-84
2024/02/03 04:06:13;;;;;;;6.13;2.42;;;10.70;99.90;;;;;;6341184;22;20066;-85
2024/02/03 04:08:39;;;;;;;8.30;3.65;;;10.70;99.90;;;;;;6341363;22;20002;-84
2024/02/03 04:11:05;;;;;;;7.97;2.95;;;10.70;99.90;;;;;;6369273;22;20006;-84
2024/02/03 04:13:31;;;;;;;12.63;3.30;;;10.70;99.90;;;;;;6341694;22;20093;-84
2024/02/03 04:15:57;;;;;;;8.55;3.28;;;10.70;99.90;;;;;;6370190;22;20074;-83
2024/02/03 04:18:24;;;;;;;11.65;3.42;;;10.70;99.90;;;;;;6342532;22;20338;-83
2024/02/03 04:20:49;;;;;;;11.63;3.50;;;10.70;99.90;;;;;;6343011;22;20481;-86
2024/02/03 04:23:15;;;;;;;8.57;2.33;;;10.70;99.90;;;;;;6342975;22;19998;-83
2024/02/03 04:25:41;;;;;;;5.05;1.98;;;10.70;99.90;;;;;;6342529;22;20044;-84
2024/02/03 04:28:06;;;;;;;9.43;3.00;;;10.70;99.90;;;;;;6341584;22;20006;-84
2024/02/03 04:30:32;;;;;;;8.93;2.90;;;10.70;99.90;;;;;;6341551;22;20011;-84
2024/02/03 04:32:58;;;;;;;3.15;1.67;;;10.70;99.90;;;;;;6369585;22;20002;-85
2024/02/03 04:35:23;;;;;;;3.13;2.17;;;10.60;99.90;;;;;;6341241;22;20003;-84
2024/02/03 04:37:49;;;;;;;6.50;2.45;;;10.70;99.90;;;;;;6369251;22;20001;-83
2024/02/03 04:40:15;;;;;;;5.35;2.47;;;10.70;99.90;;;;;;6369550;22;20495;-84
2024/02/03 04:42:40;;;;;;;4.57;2.03;;;10.70;99.90;;;;;;6341271;22;20429;-85
2024/02/03 04:45:07;;;;;;;4.80;2.67;;;10.60;99.90;;;;;;6341275;22;20009;-84
2024/02/03 04:47:34;;;;;;;4.00;1.85;;;10.60;99.90;;;;;;6341188;22;20059;-84
2024/02/03 04:50:00;;;;;;;6.18;2.15;;;10.60;99.90;;;;;;6368662;22;20453;-84
2024/02/03 04:52:26;;;;;;;7.50;2.60;;;10.70;99.90;;;;;;6341341;22;20009;-84
2024/02/03 04:54:51;;;;;;;7.35;2.90;;;10.70;99.90;;;;;;6368770;22;20002;-84
2024/02/03 04:57:17;;;;;;;8.13;3.40;;;10.70;99.90;;;;;;6341344;22;20418;-84
2024/02/03 04:59:44;;;;;;;4.90;3.38;;;10.70;99.90;;;;;;6341201;22;20226;-84
2024/02/03 05:02:10;;;;;;;7.57;3.85;;;10.70;99.90;;;;;;6341186;22;19999;-85
2024/02/03 05:04:37;;;;;;;7.63;4.05;;;10.70;99.90;;;;;;6368791;22;20441;-85
2024/02/03 05:07:03;;;;;;;10.38;3.83;;;10.70;99.90;;;;;;6368867;22;20307;-84
2024/02/03 05:09:29;;;;;;;4.00;3.22;;;10.70;99.90;;;;;;6368908;22;20010;-84
2024/02/03 05:11:55;;;;;;;6.63;3.10;;;10.70;99.90;;;;;;6341103;22;20013;-84
2024/02/03 05:14:21;;;;;;;7.07;3.67;;;10.70;99.90;;;;;;6341496;22;20066;-85
2024/02/03 05:16:48;;;;;;;5.22;1.88;;;10.70;99.90;;;;;;6369177;22;20429;-83
2024/02/03 05:19:15;;;;;;;4.00;1.90;;;10.70;99.90;;;;;;6368768;22;20449;-83
2024/02/03 05:21:45;;;;;;;2.28;2.03;;;10.70;99.90;;;;;;6340645;22;20018;-84
2024/02/03 05:24:11;;;;;;;3.35;1.95;;;10.70;99.90;;;;;;6369048;22;20003;-84
2024/02/03 05:26:36;;;;;;;5.15;1.65;;;10.80;99.90;;;;;;6370352;22;20113;-83
2024/02/03 05:29:02;;;;;;;1.63;1.35;;;10.80;99.90;;;;;;6343104;22;20512;-83
2024/02/03 05:31:28;;;;;;;3.53;1.63;;;10.80;99.90;;;;;;6342982;22;19998;-84
2024/02/03 05:33:53;;;;;;;4.97;1.60;;;10.80;99.90;;;;;;6343082;22;20081;-83
2024/02/03 05:36:19;;;;;;;2.33;1.42;;;10.80;99.90;;;;;;6343384;22;20081;-83
2024/02/03 05:38:45;;;;;;;2.45;1.50;;;10.80;99.90;;;;;;6343836;22;20002;-83
2024/02/03 05:41:10;;;;;;;4.20;1.65;;;10.80;99.90;;;;;;6343637;22;20337;-83
2024/02/03 05:43:36;;;;;;;2.97;1.50;;;10.80;99.90;;;;;;6372001;22;20005;-84
2024/02/03 05:46:02;;;;;;;3.53;1.35;;;10.80;99.90;;;;;;6344073;22;20067;-84
2024/02/03 05:48:28;;;;;;;2.20;1.50;;;10.80;99.90;;;;;;6345951;22;20013;-84
2024/02/03 05:50:54;;;;;;;2.05;1.50;;;10.80;99.90;;;;;;6374588;22;20030;-85
2024/02/03 05:53:20;;;;;;;6.03;2.22;;;10.80;99.90;;;;;;6372968;22;20433;-84
2024/02/03 05:55:45;;;;;;;3.67;2.55;;;10.80;99.90;;;;;;6343551;22;20003;-83
2024/02/03 05:58:12;;;;;;;4.93;2.92;;;10.80;99.90;;;;;;6343650;22;20439;-84
2024/02/03 06:00:38;;;;;;;7.68;3.30;;;10.80;99.90;;;;;;6343277;22;20063;-84
2024/02/03 06:03:03;;;;;;;6.68;4.07;;;10.80;99.90;;;;;;6343361;22;20007;-83
2024/02/03 06:05:29;;;;;;;9.52;3.95;;;10.70;99.90;;;;;;6343002;22;20016;-83
2024/02/03 06:07:55;;;;;;;8.00;3.10;;;10.70;99.90;;;;;;6343111;22;20391;-84
2024/02/03 06:10:21;;;;;;;6.63;2.80;;;10.70;99.90;;;;;;6343087;22;20014;-83
2024/02/03 06:12:46;;;;;;;9.02;2.63;;;10.70;99.90;;;;;;6343421;22;20013;-82
2024/02/03 06:15:12;;;;;;;4.65;2.10;;;10.70;99.90;;;;;;6343098;22;20299;-84
2024/02/03 06:17:38;;;;;;;5.68;2.22;;;10.70;99.90;;;;;;6342985;22;20044;-84
2024/02/03 06:20:04;;;;;;;3.38;1.92;;;10.70;99.90;;;;;;6342882;22;20003;-83
2024/02/03 06:22:30;;;;;;;5.05;2.45;;;10.70;99.90;;;;;;6371046;22;20006;-82
2024/02/03 06:24:55;;;;;;;4.95;2.22;;;10.70;99.90;;;;;;6370958;22;20002;-83
2024/02/03 06:27:21;;;;;;;3.30;1.80;;;10.70;99.90;;;;;;6342926;22;20006;-83
2024/02/03 06:29:47;;;;;;;5.82;2.42;;;10.70;99.90;;;;;;6342517;22;20010;-83
2024/02/03 06:32:13;;;;;;;1.95;1.40;;;10.70;99.90;;;;;;6342662;22;20337;-83
2024/02/03 06:34:38;;;;;;;4.25;1.25;;;10.70;99.90;;;;;;6342765;22;20073;-84
2024/02/03 06:37:04;;;;;;;2.63;1.67;;;10.70;99.90;;;;;;6341998;22;20002;-84
2024/02/03 06:39:30;;;;;;;5.82;2.10;;;10.70;99.90;;;;;;6341487;22;20323;-83
2024/02/03 06:41:56;;;;;;;4.85;1.90;;;10.80;99.90;;;;;;6342293;22;20006;-84
2024/02/03 06:44:21;;;;;;;3.25;2.40;;;10.70;99.90;;;;;;6342598;22;20002;-83
2024/02/03 06:46:47;;;;;;;4.22;2.47;;;10.70;99.90;;;;;;6342007;22;20438;-83
2024/02/03 06:49:13;;;;;;;6.25;3.15;;;10.70;99.90;;;;;;6341753;22;20350;-84
2024/02/03 06:51:38;;;;;;;5.97;2.70;;;10.70;99.90;;;;;;6341968;22;20089;-83
2024/02/03 06:54:04;;;;;;;4.70;3.00;;;10.70;99.90;;;;;;6341915;22;20002;-83
2024/02/03 06:56:30;;;;;;;6.53;2.80;;;10.70;99.90;;;;;;6341382;22;19998;-84
2024/02/03 06:58:56;;;;;;;7.93;2.38;;;10.70;99.90;;;;;;6369744;22;20078;-85
2024/02/03 07:01:22;;;;;;;5.20;2.72;;;10.70;99.90;;;;;;6369329;22;19999;-84
2024/02/03 07:03:48;;;;;;;3.95;2.28;;;10.70;99.90;;;;;;6341098;22;20009;-86
2024/02/03 07:06:14;;;;;;;6.60;3.60;;;10.70;99.90;;;;;;6340994;22;20006;-85
2024/02/03 07:08:40;;;;;;;7.07;3.75;;;10.70;99.90;;;;;;6340766;22;20021;-84
2024/02/03 07:11:06;;;;;;;4.22;3.70;;;10.70;99.90;;;;;;6341252;22;20006;-83
2024/02/03 07:13:32;;;;;;;12.35;4.70;;;10.60;99.90;;;;;;6340743;22;20003;-84
2024/02/03 07:15:58;;;;;;;12.15;4.53;;;10.60;99.90;;;;;;6341437;22;20032;-85
2024/02/03 07:18:24;;;;;;;10.05;4.97;;;10.60;99.90;;;;;;6341729;22;20002;-85
2024/02/03 07:20:51;;;;;;;11.05;3.58;;;10.60;99.90;;;;;;6369836;22;20015;-84
2024/02/03 07:23:17;;;;;;;8.45;4.07;;;10.60;99.90;;;;;;6341553;22;20035;-84
2024/02/03 07:25:42;;;;;;;7.30;3.00;;;10.60;99.90;;;;;;6341173;22;20051;-84
2024/02/03 07:28:08;;;;;;;7.22;2.70;;;10.60;99.90;;;;;;6368166;22;20069;-86
2024/02/03 07:30:34;;;;;;;7.28;2.50;;;10.60;99.90;;;;;;6339729;22;20025;-87
2024/02/03 07:33:01;;;;;;;5.50;2.30;;;10.60;99.90;;;;;;6340363;22;20013;-85
2024/02/03 07:35:29;;;;;;;3.55;1.60;;;10.50;99.90;;;;;;6340290;22;20002;-84
2024/02/03 07:37:55;;;;;;;3.20;1.73;;;10.50;99.90;;;;;;6340513;22;20006;-84
2024/02/03 07:40:21;;;;;;;3.13;1.25;;;10.50;99.90;;;;;;6340406;22;20021;-84
2024/02/03 07:42:47;;;;;;;4.85;1.80;;;10.50;99.90;;;;;;6367234;22;20474;-84
2024/02/03 07:45:13;;;;;;;3.63;1.80;;;10.50;99.90;;;;;;6339916;22;19998;-83
2024/02/03 07:47:39;;;;;;;6.97;2.20;;;10.50;99.90;;;;;;6369415;22;20479;-86
2024/02/03 07:50:05;;;;;;;6.32;1.70;;;10.40;99.90;;;;;;6340088;22;20014;-83
2024/02/03 07:52:31;;;;;;;4.50;2.15;;;10.40;99.90;;;;;;6339457;22;20032;-84
2024/02/03 07:54:57;;;;;;;6.90;1.67;;;10.40;99.90;;;;;;6368444;22;20006;-83
2024/02/03 07:57:22;;;;;;;2.05;1.30;;;10.40;99.90;;;;;;6368044;22;20002;-83
2024/02/03 07:59:48;;;;;;;5.18;1.67;;;10.50;99.90;;;;;;6339762;22;20003;-84
2024/02/03 08:02:14;;;;;;;2.83;1.40;;;10.50;99.90;;;;;;6367271;22;20003;-83
2024/02/03 08:04:40;;;;;;;7.88;1.90;;;10.50;99.90;;;;;;6340227;22;20006;-85
2024/02/03 08:07:05;;;;;;;8.05;2.40;;;10.50;99.90;;;;;;6369429;22;20048;-84
2024/02/03 08:09:31;;;;;;;3.65;1.05;;;10.50;99.90;;;;;;6340182;22;20345;-84
2024/02/03 08:11:59;;;;;;;2.95;1.52;;;10.50;99.90;;;;;;6341247;22;20024;-83
2024/02/03 08:14:24;;;;;;;3.92;1.92;;;10.50;99.90;;;;;;6340222;22;20017;-86
2024/02/03 08:16:50;;;;;;;4.00;1.52;;;10.50;99.90;;;;;;6339472;22;20330;-83
2024/02/03 08:19:17;;;;;;;5.68;1.67;;;10.50;99.90;;;;;;6340809;22;19998;-84
2024/02/03 08:21:43;;;;;;;3.80;1.38;;;10.50;99.90;;;;;;6368200;22;20021;-84
2024/02/03 08:24:09;;;;;;;8.93;1.70;;;10.50;99.90;;;;;;6340009;22;20468;-83
2024/02/03 08:26:34;;;;;;;5.63;1.70;;;10.50;99.90;;;;;;6313782;22;20386;-82
2024/02/03 08:29:01;;;;;;;3.33;1.13;;;10.50;99.90;;;;;;6340173;22;20044;-83
2024/02/03 08:31:27;;;;;;;4.03;1.42;;;10.50;99.90;;;;;;6369137;22;19998;-83
2024/02/03 08:33:53;;;;;;;6.18;1.42;;;10.50;99.90;;;;;;6369322;22;20455;-82
2024/02/03 08:36:18;;;;;;;4.15;1.55;;;10.50;99.90;;;;;;6341626;22;20048;-82
2024/02/03 08:38:44;;;;;;;2.75;0.93;;;10.50;99.90;;;;;;6341719;22;20028;-82
2024/02/03 08:41:10;;;;;;;3.33;0.68;;;10.50;99.90;;;;;;6341477;22;20038;-83
2024/02/03 08:43:35;;;;;;;2.50;0.88;;;10.40;99.90;;;;;;6341307;22;20007;-82
2024/02/03 08:46:02;;;;;;;2.05;0.85;;;10.40;99.90;;;;;;6340270;22;20003;-83
2024/02/03 08:48:27;;;;;;;2.92;0.77;;;10.40;99.90;;;;;;6341257;22;20341;-82
2024/02/03 08:50:53;;;;;;;5.35;0.98;;;10.40;99.90;;;;;;6372496;22;20002;-82
2024/02/03 08:53:18;;;;;;;4.68;1.58;;;10.40;99.90;;;;;;6372320;22;19999;-82
2024/02/03 08:55:44;;;;;;;3.03;1.13;;;10.40;99.90;;;;;;6371658;22;20078;-83
2024/02/03 08:58:10;;;;;;;2.80;1.15;;;10.40;99.90;;;;;;6370422;22;19999;-84
2024/02/03 09:00:35;;;;;;;4.93;1.25;;;10.40;99.90;;;;;;6369796;22;20327;-82
2024/02/03 09:03:01;;;;;;;5.25;1.17;;;10.40;99.90;;;;;;6371337;22;20003;-82
2024/02/03 09:05:27;;;;;;;5.03;0.90;;;10.40;99.90;;;;;;6342533;22;20051;-82
2024/02/03 09:07:52;;;;;;;3.33;0.60;;;10.40;99.90;;;;;;6343093;22;20085;-83
2024/02/03 09:10:20;;;;;;;2.28;0.70;;;10.40;99.90;;;;;;6370882;22;20014;-84
2024/02/03 09:12:45;;;;;;;9.82;1.35;;;10.40;99.90;;;;;;6343504;22;20437;-83
2024/02/03 09:15:11;;;;;;;3.50;1.02;;;10.30;99.90;;;;;;6344839;22;20010;-84
2024/02/03 09:17:37;;;;;;;3.88;0.73;;;10.30;99.90;;;;;;6371896;22;19998;-84
2024/02/03 09:20:04;;;;;;;4.82;0.90;;;10.40;99.90;;;;;;6371303;22;20032;-82
2024/02/03 09:22:29;;;;;;;3.17;0.93;;;10.30;99.90;;;;;;6343264;22;20330;-82
2024/02/03 09:24:55;;;;;;;2.22;0.70;;;10.30;99.90;;;;;;6372417;22;20013;-84
2024/02/03 09:27:21;;;;;;;3.50;1.05;;;10.40;99.90;;;;;;6343607;22;20009;-83
2024/02/03 09:29:46;;;;;;;8.00;1.50;;;10.30;99.90;;;;;;6342911;22;20463;-83
2024/02/03 09:32:12;;;;;;;2.97;0.73;;;10.30;99.90;;;;;;6342535;22;20009;-83
2024/02/03 09:34:38;;;;;;;3.15;1.10;;;10.30;99.90;;;;;;6370700;22;20013;-83
2024/02/03 09:37:04;;;;;;;2.45;0.65;;;10.30;99.90;;;;;;6342942;22;19999;-83
2024/02/03 09:39:30;;;;;;;0.95;0.65;;;10.20;99.90;;;;;;6370749;22;20073;-84
2024/02/03 09:41:56;;;;;;;2.80;0.50;;;10.20;99.90;;;;;;6342977;22;20314;-84
2024/02/03 09:44:22;;;;;;;2.67;0.80;;;10.20;99.90;;;;;;6343024;22;20311;-84
2024/02/03 09:46:49;;;;;;;0.93;0.77;;;10.20;99.90;;;;;;6370468;22;19995;-84
2024/02/03 09:49:15;;;;;;;3.83;0.55;;;10.20;99.90;;;;;;6342046;22;20392;-84
2024/02/03 09:51:41;;;;;;;5.38;1.00;;;10.20;99.90;;;;;;6371052;22;19998;-83
2024/02/03 09:54:07;;;;;;;3.10;0.85;;;10.20;99.90;;;;;;6342620;22;20034;-84
2024/02/03 09:56:33;;;;;;;3.53;0.77;;;10.20;99.90;;;;;;6342605;22;20437;-84
2024/02/03 09:58:58;;;;;;;2.55;0.73;;;10.20;99.90;;;;;;6342455;22;20018;-84
2024/02/03 10:01:24;;;;;;;0.75;0.50;;;10.20;99.90;;;;;;6343084;22;20010;-84
2024/02/03 10:03:56;;;;;;;2.85;0.70;;;10.20;99.90;;;;;;6370579;22;19999;-82
2024/02/03 10:06:22;;;;;;;3.47;0.90;;;10.20;99.90;;;;;;6370692;22;20007;-83
2024/02/03 10:08:52;;;;;;;5.85;0.88;;;10.20;99.90;;;;;;6341562;22;20006;-85
2024/02/03 10:11:21;;;;;;;3.30;0.70;;;10.20;99.90;;;;;;6341331;22;20500;-84
2024/02/03 10:14:02;;;;;;;3.65;0.90;;;10.20;99.90;;;;;;6370080;22;20006;-84
2024/02/03 10:16:28;;;;;;;3.30;1.05;;;10.30;99.90;;;;;;6342317;22;20010;-84
2024/02/03 10:18:54;;;;;;;3.75;1.40;;;10.30;99.90;;;;;;6341650;22;20002;-82
2024/02/03 10:21:19;;;;;;;3.58;1.10;;;10.30;99.90;;;;;;6342020;22;20014;-82
2024/02/03 10:23:52;;;;;;;5.97;1.58;;;10.30;99.90;;;;;;6342402;22;20009;-82
2024/02/03 10:26:17;;;;;;;2.15;1.30;;;10.40;99.90;;;;;;6341557;22;20003;-83
2024/02/03 10:28:44;;;;;;;5.32;1.80;;;10.30;99.90;;;;;;6369570;22;20021;-82
2024/02/03 10:31:11;;;;;;;6.00;1.58;;;10.30;99.90;;;;;;6341557;22;20379;-84
2024/02/03 10:33:38;;;;;;;9.93;1.58;;;10.30;99.90;;;;;;6339446;22;20012;-83
2024/02/03 10:36:04;;;;;;;11.65;1.13;;;10.30;99.90;;;;;;6365767;22;20061;-83
2024/02/03 10:38:30;;;;;;;3.63;1.02;;;10.20;99.90;;;;;;6336711;22;20002;-82
2024/02/03 10:40:57;;;;;;;5.70;0.90;;;10.30;99.90;;;;;;6365721;22;20044;-83
2024/02/03 10:43:25;;;;;;;8.70;1.60;;;10.20;99.90;;;;;;6365890;22;19998;-84
2024/02/03 10:46:00;;;;;;;4.90;1.38;;;10.20;99.90;;;;;;6366156;22;20002;-84
2024/02/03 10:48:28;;;;;;;6.10;1.40;;;10.20;99.90;;;;;;6366483;22;20418;-84
2024/02/03 10:51:01;;;;;;;3.72;1.55;;;10.20;99.90;;;;;;6367780;22;20010;-85
2024/02/03 10:53:35;;;;;;;4.28;1.30;;;10.20;99.90;;;;;;6341680;22;20047;-82
2024/02/03 10:56:07;;;;;;;7.25;1.77;;;10.20;99.90;;;;;;6342359;22;19999;-83
2024/02/03 10:58:33;;;;;;;6.90;1.45;;;10.20;99.90;;;;;;6370183;22;20421;-82
2024/02/03 11:01:10;;;;;;;1.77;1.20;;;10.10;99.90;;;;;;6342306;22;20037;-82
2024/02/03 11:03:39;;;;;;;8.15;1.40;;;10.10;99.90;;;;;;6370229;22;20092;-83
2024/02/03 11:06:06;;;;;;;4.30;1.20;;;10.10;99.90;;;;;;6369733;22;20033;-82
2024/02/03 11:08:33;;;;;;;3.42;1.10;;;10.10;99.90;;;;;;6342063;22;20166;-82
2024/02/03 11:10:58;;;;;;;5.18;1.65;;;10.00;99.90;;;;;;6342228;22;20014;-82
2024/02/03 11:13:27;;;;;;;5.90;1.10;;;10.00;99.90;;;;;;6370447;22;20325;-82
2024/02/03 11:15:57;;;;;;;4.32;1.33;;;10.00;99.90;;;;;;6342080;22;20037;-82
2024/02/03 11:18:23;;;;;;;6.03;1.27;;;10.00;99.90;;;;;;6370068;22;20006;-82
2024/02/03 11:20:49;;;;;;;3.53;1.13;;;9.90;99.90;;;;;;6341679;22;20087;-81
2024/02/03 11:23:15;;;;;;;6.53;1.40;;;9.90;99.90;;;;;;6342018;22;20006;-81
2024/02/03 11:25:49;;;;;;;4.00;1.08;;;9.90;99.90;;;;;;6370016;22;20079;-82
2024/02/03 11:28:15;;;;;;;4.68;1.10;;;9.90;99.90;;;;;;6370145;22;19998;-82
2024/02/03 11:30:41;;;;;;;6.60;1.02;;;9.90;99.90;;;;;;6369638;22;20112;-82
2024/02/03 11:33:08;;;;;;;5.25;0.80;;;9.90;99.90;;;;;;6341903;22;20133;-83
2024/02/03 11:35:34;;;;;;;2.47;0.60;;;9.90;99.90;;;;;;6341943;22;20036;-81
2024/02/03 11:38:09;;;;;;;3.22;0.50;;;9.90;99.90;;;;;;6369654;22;19999;-84
2024/02/03 11:40:44;;;;;;;0.77;0.40;;;9.90;99.90;;;;;;6341763;22;20506;-82
2024/02/03 11:43:14;;;;;;;1.10;0.47;;;9.80;99.90;;;;;;6341680;22;20093;-83
2024/02/03 11:45:45;;;;;;;2.38;1.48;;;9.80;99.90;;;;;;6341799;22;20040;-83
2024/02/03 11:48:11;;;;;;;3.92;1.90;;;9.70;99.90;;;;;;6342041;22;20022;-82
2024/02/03 11:50:38;;;;;;;3.67;1.13;;;9.70;99.90;;;;;;6369651;22;20006;-82
2024/02/03 11:53:03;;;;;;;2.63;0.90;;;9.60;99.90;;;;;;6341875;22;20013;-82
2024/02/03 11:55:29;;;;;;;3.65;1.02;;;9.60;99.90;;;;;;6341714;22;20429;-82
2024/02/03 11:57:55;;;;;;;4.10;0.90;;;9.50;99.90;;;;;;6369450;22;20002;-82
2024/02/03 12:00:20;;;;;;;3.15;1.05;;;9.50;99.90;;;;;;6369750;22;19995;-82
2024/02/03 12:02:47;;;;;;;2.33;0.75;;;9.50;99.90;;;;;;6341729;22;20003;-81
2024/02/03 12:05:13;;;;;;;4.50;1.20;;;9.50;99.90;;;;;;6369421;22;20002;-81
2024/02/03 12:07:41;;;;;;;0.63;0.45;;;9.40;99.90;;;;;;6341745;22;20436;-82
2024/02/03 12:10:09;;;;;;;4.68;0.77;;;9.50;99.90;;;;;;6342821;22;20349;-82
2024/02/03 12:12:36;;;;;;;3.78;0.57;;;9.50;99.90;;;;;;6341631;22;20334;-81
2024/02/03 12:15:02;;;;;;;11.00;5.07;;;9.50;99.90;;;;;;6369306;22;20048;-82
2024/02/03 12:17:28;;;;;;;2.33;1.02;;;9.60;99.90;;;;;;6341588;22;20010;-82
2024/02/03 12:19:54;;;;;;;8.77;3.97;;;9.60;99.90;;;;;;6368859;22;20013;-82
2024/02/03 12:22:21;;;;;;;5.15;1.00;;;9.60;99.90;;;;;;6341456;22;20425;-82
2024/02/03 12:24:47;;;;;;;4.13;0.70;;;9.60;99.90;;;;;;6341479;22;20003;-82
2024/02/03 12:27:13;;;;;;;6.05;1.40;;;9.70;99.90;;;;;;6369234;22;20079;-81
2024/02/03 12:29:41;;;;;;;2.70;1.13;;;9.70;99.90;;;;;;6341358;22;20437;-82
2024/02/03 12:32:07;;;;;;;7.63;1.15;;;9.70;99.90;;;;;;6341526;22;20028;-81
2024/02/03 12:34:33;;;;;;;6.55;1.10;;;9.70;99.90;;;;;;6369150;22;20022;-81
2024/02/03 12:36:59;;;;;;;4.30;0.90;;;9.80;99.90;;;;;;6369689;22;20082;-83
2024/02/03 12:39:24;;;;;;;8.35;1.67;;;9.80;99.90;;;;;;6341844;22;20189;-81
2024/02/03 12:41:50;;;;;;;6.75;1.20;;;9.80;99.90;;;;;;6369773;22;20436;-81
2024/02/03 12:44:16;;;;;;;4.72;0.85;;;9.80;99.90;;;;;;6343591;22;20021;-81